createdAt,value
2022-08-04T00:02:03.074Z,7.00
2022-08-04T00:04:44.731Z,8.30
2022-08-04T00:07:44.183Z,7.90
2022-08-04T00:10:19.019Z,7.80
2022-08-04T00:12:52.659Z,7.50
2022-08-04T00:15:24.063Z,7.00
2022-08-04T00:18:01.487Z,8.40
2022-08-04T00:20:33.729Z,9.10
2022-08-04T00:23:02.666Z,7.50
2022-08-04T00:28:01.044Z,7.80
2022-08-04T00:30:29.220Z,12.70
2022-08-04T00:32:58.483Z,7.30
2022-08-04T00:35:28.876Z,7.00
2022-08-04T00:37:59.111Z,6.50
2022-08-04T00:40:46.037Z,7.70
2022-08-04T00:43:34.254Z,7.50
2022-08-04T00:49:06.791Z,8.50
2022-08-04T00:51:45.103Z,8.40
2022-08-04T00:54:20.845Z,7.70
2022-08-04T00:57:33.595Z,10.00
2022-08-04T01:00:12.107Z,8.80
2022-08-04T01:02:40.088Z,8.90
2022-08-04T01:05:22.719Z,8.50
2022-08-04T01:08:17.827Z,9.10
2022-08-04T01:11:09.918Z,15.30
2022-08-04T01:14:17.597Z,8.90
2022-08-04T01:16:52.265Z,8.10
2022-08-04T01:19:49.482Z,7.80
2022-08-04T01:22:37.507Z,9.20
2022-08-04T01:25:39.115Z,7.30
2022-08-04T01:28:58.975Z,9.20
2022-08-04T01:32:02.141Z,8.40
2022-08-04T01:34:47.751Z,7.80
2022-08-04T01:37:48.691Z,8.90
2022-08-04T01:40:17.272Z,8.20
2022-08-04T01:42:48.118Z,9.70
2022-08-04T01:45:21.869Z,8.90
2022-08-04T01:47:55.930Z,9.00
2022-08-04T01:50:27.973Z,9.30
2022-08-04T01:52:56.812Z,9.70
2022-08-04T01:55:54.929Z,8.30
2022-08-04T01:58:20.159Z,10.40
2022-08-04T02:01:11.311Z,10.30
2022-08-04T02:04:21.746Z,9.60
2022-08-04T02:07:09.819Z,11.70
2022-08-04T02:10:02.851Z,10.00
2022-08-04T02:12:45.524Z,8.50
2022-08-04T02:15:38.218Z,9.20
2022-08-04T02:18:20.950Z,8.20
2022-08-04T02:20:55.578Z,8.00
2022-08-04T02:23:34.469Z,8.00
2022-08-04T02:26:22.320Z,9.40
2022-08-04T02:29:04.117Z,9.40
2022-08-04T02:32:05.169Z,8.10
2022-08-04T02:34:35.834Z,9.70
2022-08-04T02:37:06.419Z,10.10
2022-08-04T02:39:48.215Z,9.00
2022-08-04T02:42:19.187Z,8.90
2022-08-04T02:44:52.462Z,9.00
2022-08-04T02:47:22.418Z,8.30
2022-08-04T02:49:52.820Z,10.10
2022-08-04T02:52:21.907Z,9.60
2022-08-04T02:54:55.720Z,10.60
2022-08-04T02:57:26.882Z,9.40
2022-08-04T03:00:13.462Z,9.00
2022-08-04T03:03:19.006Z,9.50
2022-08-04T03:06:00.916Z,9.50
2022-08-04T03:09:20.226Z,10.40
2022-08-04T03:11:59.250Z,8.20
2022-08-04T03:14:32.977Z,9.10
2022-08-04T03:17:30.284Z,8.90
2022-08-04T03:20:27.865Z,10.30
2022-08-04T03:23:13.997Z,9.30
2022-08-04T03:26:13.769Z,9.20
2022-08-04T03:29:03.318Z,9.90
2022-08-04T03:31:40.480Z,9.50
2022-08-04T03:34:27.910Z,9.30
2022-08-04T03:37:37.513Z,9.10
2022-08-04T03:40:28.061Z,10.50
2022-08-04T03:43:57.301Z,8.30
2022-08-04T03:46:48.848Z,11.10
2022-08-04T03:49:42.837Z,9.90
2022-08-04T03:52:50.377Z,13.00
2022-08-04T03:55:44.887Z,10.70
2022-08-04T03:58:43.682Z,12.40
2022-08-04T04:02:01.406Z,10.00
2022-08-04T04:04:33.650Z,9.80
2022-08-04T04:07:11.559Z,11.80
2022-08-04T04:10:06.281Z,9.60
2022-08-04T04:12:38.752Z,9.20
2022-08-04T04:15:25.680Z,9.10
2022-08-04T04:18:03.303Z,11.50
2022-08-04T04:20:56.359Z,9.70
2022-08-04T04:24:02.909Z,11.10
2022-08-04T04:26:37.059Z,10.70
2022-08-04T04:29:14.272Z,9.30
2022-08-04T04:31:42.898Z,7.90
2022-08-04T04:34:32.353Z,10.00
2022-08-04T04:37:30.627Z,11.60
2022-08-04T04:40:36.204Z,10.60
2022-08-04T04:43:51.071Z,10.70
2022-08-04T04:46:46.145Z,8.60
2022-08-04T04:49:26.492Z,9.70
2022-08-04T04:52:11.847Z,10.40
2022-08-04T04:55:04.653Z,8.60
2022-08-04T04:57:54.139Z,15.20
2022-08-04T05:00:27.577Z,8.40
2022-08-04T05:03:20.947Z,10.20
2022-08-04T05:06:23.302Z,10.90
2022-08-04T05:09:15.459Z,9.80
2022-08-04T05:12:02.537Z,8.30
2022-08-04T05:14:46.701Z,9.40
2022-08-04T05:17:24.381Z,11.20
2022-08-04T05:20:03.006Z,9.60
2022-08-04T05:23:01.688Z,9.50
2022-08-04T05:25:32.698Z,10.70
2022-08-04T05:28:22.796Z,8.30
2022-08-04T05:31:00.235Z,9.60
2022-08-04T05:33:34.657Z,9.00
2022-08-04T05:36:23.442Z,13.10
2022-08-04T05:39:00.059Z,8.70
2022-08-04T05:41:46.007Z,8.20
2022-08-04T05:44:18.924Z,11.90
2022-08-04T05:46:53.601Z,11.30
2022-08-04T05:49:26.535Z,11.50
2022-08-04T05:51:59.673Z,10.20
2022-08-04T05:54:30.562Z,9.20
2022-08-04T05:57:00.014Z,10.10
2022-08-04T05:59:34.512Z,11.40
2022-08-04T06:02:03.702Z,10.20
2022-08-04T06:04:35.563Z,9.70
2022-08-04T06:07:04.047Z,9.20
2022-08-04T06:09:33.916Z,9.90
2022-08-04T06:12:08.593Z,9.30
2022-08-04T06:14:44.312Z,8.90
2022-08-04T06:18:32.989Z,10.50
2022-08-04T06:20:19.714Z,11.10
2022-08-04T06:22:54.129Z,10.00
2022-08-04T06:25:26.632Z,11.90
2022-08-04T06:27:56.340Z,9.30
2022-08-04T06:30:28.151Z,8.40
2022-08-04T06:33:03.897Z,9.20
2022-08-04T06:35:34.482Z,9.10
2022-08-04T06:38:03.462Z,10.40
2022-08-04T06:40:34.663Z,11.60
2022-08-04T06:43:07.855Z,9.90
2022-08-04T06:45:39.933Z,9.10
2022-08-04T06:48:12.886Z,11.60
2022-08-04T06:51:27.925Z,9.30
2022-08-04T06:53:30.230Z,8.80
2022-08-04T06:56:00.641Z,8.00
2022-08-04T06:58:32.590Z,9.50
2022-08-04T07:01:02.319Z,8.70
2022-08-04T07:03:33.425Z,8.70
2022-08-04T07:06:05.828Z,6.80
2022-08-04T07:08:36.519Z,8.40
2022-08-04T07:11:06.180Z,9.70
2022-08-04T07:13:34.236Z,10.20
2022-08-04T07:16:02.678Z,9.90
2022-08-04T07:18:32.382Z,9.20
2022-08-04T07:21:00.633Z,12.80
2022-08-04T07:23:28.753Z,9.50
2022-08-04T07:26:12.329Z,8.00
2022-08-04T07:28:42.214Z,8.40
2022-08-04T07:31:33.614Z,9.20
2022-08-04T07:34:17.081Z,9.40
2022-08-04T07:36:55.361Z,8.10
2022-08-04T07:39:31.574Z,9.10
2022-08-04T07:42:19.968Z,7.50
2022-08-04T07:44:48.443Z,8.10
2022-08-04T07:47:25.130Z,9.00
2022-08-04T07:49:56.735Z,8.50
2022-08-04T07:52:27.978Z,8.50
2022-08-04T07:54:57.103Z,10.00
2022-08-04T07:57:41.820Z,7.70
2022-08-04T08:00:15.211Z,8.20
2022-08-04T08:02:45.773Z,7.80
2022-08-04T08:05:16.990Z,7.60
2022-08-04T08:07:50.898Z,8.70
2022-08-04T08:10:24.860Z,9.70
2022-08-04T08:12:54.560Z,7.10
2022-08-04T08:15:23.182Z,6.80
2022-08-04T08:17:59.528Z,6.80
2022-08-04T08:20:31.039Z,7.60
2022-08-04T08:23:01.523Z,6.60
2022-08-04T08:25:33.528Z,8.60
2022-08-04T08:28:04.186Z,8.40
2022-08-04T08:30:34.219Z,7.20
2022-08-04T08:33:06.314Z,8.50
2022-08-04T08:35:53.655Z,6.90
2022-08-04T08:38:37.968Z,8.40
2022-08-04T08:41:40.696Z,8.50
2022-08-04T08:44:37.615Z,6.90
2022-08-04T08:48:05.434Z,6.40
2022-08-04T08:51:03.441Z,8.00
2022-08-04T08:53:43.563Z,7.00
2022-08-04T08:56:33.106Z,6.30
2022-08-04T08:59:23.333Z,6.10
2022-08-04T09:02:03.983Z,8.60
2022-08-04T09:05:13.238Z,7.80
2022-08-04T09:07:49.861Z,8.20
2022-08-04T09:10:22.816Z,6.80
2022-08-04T09:13:02.761Z,6.80
2022-08-04T09:15:57.284Z,8.00
2022-08-04T09:18:32.927Z,6.50
2022-08-04T09:21:28.386Z,6.10
2022-08-04T09:24:35.476Z,7.30
2022-08-04T09:27:13.878Z,6.70
2022-08-04T09:30:02.722Z,6.30
2022-08-04T09:32:39.464Z,6.00
2022-08-04T09:35:42.953Z,5.80
2022-08-04T09:38:42.791Z,5.00
2022-08-04T09:41:49.305Z,6.70
2022-08-04T09:44:50.315Z,6.70
2022-08-04T09:47:39.637Z,4.40
2022-08-04T09:50:20.681Z,5.00
2022-08-04T09:53:21.615Z,5.30
2022-08-04T09:56:03.341Z,7.20
2022-08-04T09:58:51.051Z,6.80
2022-08-04T10:01:25.300Z,8.00
2022-08-04T10:04:06.942Z,6.80
2022-08-04T10:06:50.393Z,10.30
2022-08-04T10:09:52.480Z,5.10
2022-08-04T10:12:26.953Z,8.80
2022-08-04T10:15:19.005Z,7.10
2022-08-04T10:18:11.678Z,7.90
2022-08-04T10:20:58.973Z,9.60
2022-08-04T10:23:59.954Z,8.20
2022-08-04T10:26:56.889Z,7.90
2022-08-04T10:29:36.578Z,6.10
2022-08-04T10:32:16.733Z,6.90
2022-08-04T10:34:53.336Z,10.20
2022-08-04T10:38:01.077Z,7.60
2022-08-04T10:40:40.614Z,5.70
2022-08-04T10:43:20.830Z,6.30
2022-08-04T10:45:58.997Z,6.90
2022-08-04T10:48:42.383Z,5.50
2022-08-04T10:51:58.198Z,6.80
2022-08-04T10:54:27.220Z,4.50
2022-08-04T10:56:59.321Z,6.40
2022-08-04T11:00:00.481Z,6.70
2022-08-04T11:02:51.341Z,5.80
2022-08-04T11:05:22.631Z,6.10
2022-08-04T11:07:57.165Z,7.00
2022-08-04T11:10:28.369Z,6.10
2022-08-04T11:13:05.147Z,6.80
2022-08-04T11:15:46.064Z,5.40
2022-08-04T11:19:00.351Z,6.20
2022-08-04T11:21:34.257Z,4.70
2022-08-04T11:24:07.114Z,5.80
2022-08-04T11:26:46.271Z,4.90
2022-08-04T11:29:26.711Z,5.50
2022-08-04T11:31:59.661Z,6.10
2022-08-04T11:34:28.331Z,7.10
2022-08-04T11:37:14.242Z,5.50
2022-08-04T11:39:51.543Z,5.80
2022-08-04T11:42:27.798Z,5.70
2022-08-04T11:45:04.642Z,5.50
2022-08-04T11:47:41.643Z,7.10
2022-08-04T11:50:20.875Z,7.20
2022-08-04T11:52:53.431Z,5.60
2022-08-04T11:55:25.211Z,7.00
2022-08-04T11:57:54.575Z,6.70
2022-08-04T12:00:28.192Z,5.60
2022-08-04T12:03:15.761Z,5.90
2022-08-04T12:08:44.478Z,5.40
2022-08-04T12:11:34.160Z,5.00
2022-08-04T12:14:22.010Z,4.10
2022-08-04T12:17:05.045Z,4.70
2022-08-04T12:20:01.352Z,6.60
2022-08-04T12:22:41.652Z,5.00
2022-08-04T12:25:14.252Z,5.60
2022-08-04T12:27:48.056Z,8.00
2022-08-04T12:30:59.533Z,5.40
2022-08-04T12:33:23.539Z,7.10
2022-08-04T12:36:21.350Z,3.50
2022-08-04T12:38:58.666Z,5.10
2022-08-04T12:41:36.892Z,5.50
2022-08-04T12:44:33.324Z,5.20
2022-08-04T12:47:36.740Z,8.20
2022-08-04T12:49:59.052Z,4.50
2022-08-04T12:52:52.078Z,6.60
2022-08-04T12:55:22.735Z,5.30
2022-08-04T12:57:52.844Z,5.20
2022-08-04T13:00:40.744Z,4.00
2022-08-04T13:04:04.579Z,4.20
2022-08-04T13:06:35.853Z,4.30
2022-08-04T13:09:09.386Z,4.60
2022-08-04T13:11:41.225Z,3.90
2022-08-04T13:14:26.536Z,4.10
2022-08-04T13:17:04.257Z,5.10
2022-08-04T13:19:39.663Z,3.90
2022-08-04T13:22:16.247Z,5.10
2022-08-04T13:25:18.079Z,7.10
2022-08-04T13:27:42.992Z,6.30
2022-08-04T13:30:21.132Z,6.30
2022-08-04T13:33:00.419Z,6.60
2022-08-04T13:35:54.583Z,4.70
2022-08-04T13:38:19.064Z,4.20
2022-08-04T13:40:48.519Z,5.60
2022-08-04T13:43:48.510Z,6.30
2022-08-04T13:46:28.224Z,6.10
2022-08-04T13:49:26.051Z,4.50
2022-08-04T13:51:57.259Z,5.90
2022-08-04T13:54:36.149Z,6.00
2022-08-04T13:57:30.414Z,3.80
2022-08-04T14:00:01.652Z,3.50
2022-08-04T14:02:43.721Z,3.90
2022-08-04T14:05:18.780Z,4.70
2022-08-04T14:07:54.194Z,5.10
2022-08-04T14:10:23.455Z,3.40
2022-08-04T14:12:52.842Z,3.50
2022-08-04T14:16:01.625Z,3.00
2022-08-04T14:18:32.823Z,5.30
2022-08-04T14:21:12.205Z,4.30
2022-08-04T14:23:52.356Z,4.00
2022-08-04T14:26:35.580Z,3.90
2022-08-04T14:29:27.204Z,6.00
2022-08-04T14:32:03.074Z,3.80
2022-08-04T14:34:33.424Z,3.90
2022-08-04T14:37:16.431Z,4.50
2022-08-04T14:40:18.472Z,3.70
2022-08-04T14:42:55.080Z,5.30
2022-08-04T14:45:54.309Z,3.70
2022-08-04T14:48:23.251Z,5.00
2022-08-04T14:50:51.351Z,6.80
2022-08-04T14:53:26.614Z,4.70
2022-08-04T14:55:57.043Z,4.20
2022-08-04T14:58:34.498Z,6.00
2022-08-04T15:01:12.160Z,4.40
2022-08-04T15:03:50.853Z,3.70
2022-08-04T15:06:27.051Z,4.40
2022-08-04T15:08:58.648Z,4.50
2022-08-04T15:11:27.331Z,4.20
2022-08-04T15:13:57.521Z,4.40
2022-08-04T15:16:29.176Z,5.70
2022-08-04T15:19:00.946Z,7.80
2022-08-04T15:21:29.909Z,3.80
2022-08-04T15:23:58.831Z,6.30
2022-08-04T15:26:39.533Z,5.70
2022-08-04T15:29:27.913Z,5.80
2022-08-04T15:32:06.621Z,4.50
2022-08-04T15:34:52.696Z,4.30
2022-08-04T15:37:39.189Z,3.60
2022-08-04T15:40:32.720Z,3.50
2022-08-04T15:43:46.095Z,3.30
2022-08-04T15:46:41.328Z,4.30
2022-08-04T15:49:18.089Z,4.90
2022-08-04T15:51:47.170Z,3.90
2022-08-04T15:54:16.952Z,3.80
2022-08-04T15:57:01.329Z,2.90
2022-08-04T15:59:55.623Z,4.20
2022-08-04T16:02:32.353Z,6.20
2022-08-04T16:05:20.281Z,4.30
2022-08-04T16:08:01.388Z,5.50
2022-08-04T16:10:36.036Z,4.60
2022-08-04T16:13:15.780Z,5.40
2022-08-04T16:15:45.544Z,5.80
2022-08-04T16:18:26.198Z,5.70
2022-08-04T16:20:59.371Z,5.40
2022-08-04T16:24:02.236Z,6.00
2022-08-04T16:26:45.776Z,5.80
2022-08-04T16:29:23.082Z,7.70
2022-08-04T16:32:13.314Z,4.40
2022-08-04T16:34:55.130Z,5.00
2022-08-04T16:37:43.929Z,4.80
2022-08-04T16:40:36.500Z,3.80
2022-08-04T16:43:13.046Z,4.70
2022-08-04T16:45:55.596Z,5.70
2022-08-04T16:48:27.304Z,5.40
2022-08-04T16:51:07.226Z,6.10
2022-08-04T16:54:02.998Z,6.30
2022-08-04T16:56:35.314Z,8.00
2022-08-04T16:59:12.833Z,5.70
2022-08-04T17:01:49.132Z,5.50
2022-08-04T17:04:17.367Z,5.50
2022-08-04T17:06:46.662Z,6.60
2022-08-04T17:09:17.272Z,6.10
2022-08-04T17:11:47.269Z,6.40
2022-08-04T17:14:22.097Z,8.00
2022-08-04T17:16:50.930Z,5.20
2022-08-04T17:19:25.094Z,6.80
2022-08-04T17:22:03.041Z,6.70
2022-08-04T17:24:38.295Z,5.80
2022-08-04T17:28:09.752Z,4.70
2022-08-04T17:29:55.518Z,5.50
2022-08-04T17:32:24.416Z,5.70
2022-08-04T17:35:02.037Z,7.30
2022-08-04T17:37:40.833Z,5.80
2022-08-04T17:40:12.946Z,7.00
2022-08-04T17:42:42.353Z,8.00
2022-08-04T17:48:09.941Z,5.40
2022-08-04T17:50:43.684Z,7.50
2022-08-04T17:53:13.100Z,6.10
2022-08-04T17:55:49.304Z,5.50
2022-08-04T17:58:26.846Z,6.80
2022-08-04T18:01:24.311Z,6.80
2022-08-04T18:06:25.535Z,7.60
2022-08-04T18:08:58.013Z,6.30
2022-08-04T18:11:29.827Z,5.50
2022-08-04T18:14:10.607Z,6.70
2022-08-04T18:16:46.023Z,5.80
2022-08-04T18:19:18.968Z,6.70
2022-08-04T18:21:59.597Z,9.30
2022-08-04T18:27:22.407Z,8.70
2022-08-04T18:30:32.457Z,6.00
2022-08-04T18:33:04.256Z,7.60
2022-08-04T18:35:30.634Z,6.30
2022-08-04T18:38:22.456Z,9.50
2022-08-04T18:40:55.343Z,9.70
2022-08-04T18:43:28.285Z,7.00
2022-08-04T18:45:59.292Z,7.80
2022-08-04T18:48:36.673Z,7.20
2022-08-04T18:51:10.801Z,8.50
2022-08-04T18:53:44.646Z,9.00
2022-08-04T18:56:15.415Z,8.30
2022-08-04T18:59:05.103Z,7.40
2022-08-04T19:02:16.546Z,8.20
2022-08-04T19:04:32.829Z,8.00
2022-08-04T19:07:29.207Z,7.70
2022-08-04T19:09:59.920Z,9.30
2022-08-04T19:12:28.734Z,9.20
2022-08-04T19:15:10.281Z,8.50
2022-08-04T19:17:53.321Z,8.10
2022-08-04T19:20:26.784Z,7.70
2022-08-04T19:24:10.673Z,8.70
2022-08-04T19:25:58.913Z,6.60
2022-08-04T19:28:35.237Z,7.90
2022-08-04T19:31:05.769Z,10.10
2022-08-04T19:33:58.681Z,8.70
2022-08-04T19:36:28.365Z,11.40
2022-08-04T19:38:57.912Z,8.30
2022-08-04T19:41:27.152Z,9.10
2022-08-04T19:43:55.481Z,8.20
2022-08-04T19:51:44.150Z,8.00
2022-08-04T19:54:17.029Z,7.90
2022-08-04T19:56:52.217Z,8.30
2022-08-04T19:59:21.382Z,7.70
2022-08-04T20:01:50.612Z,8.30
2022-08-04T20:04:18.833Z,11.00
2022-08-04T20:06:46.685Z,7.60
2022-08-04T20:09:25.773Z,6.40
2022-08-04T20:11:58.572Z,7.50
2022-08-04T20:14:32.673Z,7.50
2022-08-04T20:17:03.394Z,6.90
2022-08-04T20:19:39.739Z,9.00
2022-08-04T20:22:46.277Z,10.00
2022-08-04T20:25:01.089Z,8.80
2022-08-04T20:27:59.692Z,10.10
2022-08-04T20:33:04.408Z,8.30
2022-08-04T20:35:45.952Z,9.40
2022-08-04T20:38:33.149Z,8.60
2022-08-04T20:41:02.961Z,8.10
2022-08-04T20:43:31.585Z,9.80
2022-08-04T20:45:59.871Z,10.60
2022-08-04T20:48:29.285Z,9.50
2022-08-04T20:51:01.858Z,9.60
2022-08-04T20:53:46.755Z,9.00
2022-08-04T20:56:19.159Z,8.10
2022-08-04T20:58:59.857Z,7.80
2022-08-04T21:01:29.808Z,9.30
2022-08-04T21:07:07.914Z,9.20
2022-08-04T21:09:42.537Z,8.50
2022-08-04T21:12:27.726Z,9.20
2022-08-04T21:14:57.997Z,9.00
2022-08-04T21:20:14.130Z,7.40
2022-08-04T21:22:59.469Z,7.20
2022-08-04T21:25:29.581Z,7.70
2022-08-04T21:27:58.784Z,9.90
2022-08-04T21:30:27.645Z,9.20
2022-08-04T21:32:55.739Z,8.10
2022-08-04T21:35:37.121Z,9.20
2022-08-04T21:38:16.401Z,7.50
2022-08-04T21:40:56.768Z,7.70
2022-08-04T21:43:28.434Z,10.30
2022-08-04T21:46:03.873Z,7.90
2022-08-04T21:48:33.167Z,9.30
2022-08-04T21:51:21.848Z,8.50
2022-08-04T21:54:09.302Z,9.60
2022-08-04T21:56:38.213Z,9.00
2022-08-04T21:59:11.570Z,9.40
2022-08-04T22:01:51.924Z,10.40
2022-08-04T22:04:20.535Z,10.00
2022-08-04T22:06:52.492Z,9.70
2022-08-04T22:12:11.929Z,8.10
2022-08-04T22:14:40.521Z,8.20
2022-08-04T22:17:13.302Z,14.80
2022-08-04T22:19:55.904Z,9.30
2022-08-04T22:22:29.194Z,9.20
2022-08-04T22:25:12.268Z,7.70
2022-08-04T22:28:00.873Z,7.90
2022-08-04T22:30:36.388Z,8.30
2022-08-04T22:33:08.845Z,8.20
2022-08-04T22:35:49.113Z,8.10
2022-08-04T22:38:25.409Z,9.30
2022-08-04T22:41:09.299Z,6.70
2022-08-04T22:43:38.214Z,12.30
2022-08-04T22:46:09.105Z,9.30
2022-08-04T22:48:43.698Z,10.60
2022-08-04T22:51:12.957Z,9.60
2022-08-04T22:53:41.155Z,9.30
2022-08-04T22:56:11.111Z,7.70
2022-08-04T22:58:45.144Z,10.30
2022-08-04T23:01:15.557Z,8.80
2022-08-04T23:03:55.314Z,7.20
2022-08-04T23:06:28.650Z,8.50
2022-08-04T23:08:57.934Z,8.20
2022-08-04T23:11:35.227Z,8.50
2022-08-04T23:14:05.224Z,8.40
2022-08-04T23:19:15.221Z,7.60
2022-08-04T23:21:47.930Z,9.10
2022-08-04T23:24:30.326Z,7.30
2022-08-04T23:26:58.998Z,9.80
2022-08-04T23:29:27.733Z,10.20
2022-08-04T23:32:20.235Z,8.00
2022-08-04T23:34:48.364Z,9.20
2022-08-04T23:37:16.319Z,8.70
2022-08-04T23:40:18.055Z,7.60
2022-08-04T23:42:35.196Z,8.50
2022-08-04T23:45:05.194Z,8.70
2022-08-04T23:48:15.193Z,9.80
2022-08-04T23:50:22.975Z,8.10
2022-08-04T23:52:50.862Z,10.10
2022-08-04T23:55:21.173Z,9.40
2022-08-04T23:58:05.769Z,9.80
